Agapovka, Russia
Current Conditions -  °F | °C
As of 7:30 AM on Sunday 21 Dec 2014 (Local Time) from USCM Reporting Station
Overcast Overcast  
Wind Chill: 17°   Ceiling: 1600
Heat Index: 28°   Visibility: 5mi
Dew Point: 23°   Wind: 16mph
Humidity: 80%   Direction: 240°WSW
Pressure: 29.83"   Gusts: NA
Location:  53.3°N, 59.14°E
Report Text: USCM 210130Z 24007MPS 8000 OVC016 M02/M05 Q1010 NOSIG 19350150RMK QFE720
Loading
Personal Weather Stations






























Interactive Weather Map New forecast layout! Learn more

10-Day Weather Forecast

Advertisements
Track Severe Weather on mobile